createdAt,value
2023-04-09T00:00:39.035Z,241.24
2023-04-09T00:01:39.105Z,240.54
2023-04-09T00:02:39.107Z,239.55
2023-04-09T00:03:39.068Z,239.64
2023-04-09T00:04:39.006Z,239.84
2023-04-09T00:05:38.936Z,240.54
2023-04-09T00:06:38.903Z,241.07
2023-04-09T00:07:38.853Z,240.74
2023-04-09T00:08:38.809Z,238.64
2023-04-09T00:09:38.778Z,241.96
2023-04-09T00:10:38.733Z,238.55
2023-04-09T00:11:38.717Z,240.30
2023-04-09T00:12:38.664Z,240.06
2023-04-09T00:13:39.941Z,241.34
2023-04-09T00:14:38.569Z,238.66
2023-04-09T00:15:38.545Z,239.62
2023-04-09T00:16:38.632Z,239.92
2023-04-09T00:17:38.600Z,241.65
2023-04-09T00:18:38.591Z,239.99
2023-04-09T00:19:38.592Z,241.69
2023-04-09T00:20:38.588Z,238.53
2023-04-09T00:21:38.619Z,239.22
2023-04-09T00:22:38.632Z,240.92
2023-04-09T00:23:38.635Z,238.94
2023-04-09T00:24:38.644Z,241.58
2023-04-09T00:25:38.639Z,239.48
2023-04-09T00:26:38.670Z,241.11
2023-04-09T00:27:38.669Z,237.87
2023-04-09T00:28:38.711Z,240.32
2023-04-09T00:29:38.681Z,241.93
2023-04-09T00:30:38.698Z,238.58
2023-04-09T00:31:38.765Z,238.40
2023-04-09T00:32:38.734Z,237.74
2023-04-09T00:33:38.745Z,240.22
2023-04-09T00:34:38.798Z,240.39
2023-04-09T00:35:38.782Z,239.48
2023-04-09T00:36:38.788Z,241.27
2023-04-09T00:37:38.790Z,239.79
2023-04-09T00:38:38.805Z,240.75
2023-04-09T00:39:38.830Z,238.28
2023-04-09T00:40:38.842Z,239.22
2023-04-09T00:41:38.842Z,239.22
2023-04-09T00:42:38.860Z,241.25
2023-04-09T00:43:38.868Z,240.18
2023-04-09T00:44:38.891Z,239.31
2023-04-09T00:45:38.907Z,240.02
2023-04-09T00:46:38.930Z,240.56
2023-04-09T00:47:38.922Z,240.93
2023-04-09T00:48:38.945Z,240.12
2023-04-09T00:49:38.954Z,238.15
2023-04-09T00:50:38.957Z,238.01
2023-04-09T00:51:38.974Z,241.51
2023-04-09T00:52:38.999Z,239.20
2023-04-09T00:53:39.001Z,240.03
2023-04-09T00:54:39.054Z,238.99
2023-04-09T00:55:39.035Z,238.33
2023-04-09T00:56:39.035Z,236.63
2023-04-09T00:57:39.056Z,238.94
2023-04-09T00:58:39.067Z,240.78
2023-04-09T00:59:39.075Z,239.67
2023-04-09T01:00:39.122Z,237.80
2023-04-09T01:01:39.133Z,238.75
2023-04-09T01:02:39.312Z,239.08
2023-04-09T01:03:39.152Z,240.27
2023-04-09T01:04:39.151Z,240.34
2023-04-09T01:05:39.172Z,241.49
2023-04-09T01:06:39.196Z,240.20
2023-04-09T01:07:39.206Z,239.51
2023-04-09T01:08:39.215Z,241.32
2023-04-09T01:09:39.229Z,240.68
2023-04-09T01:10:39.236Z,240.04
2023-04-09T01:11:39.255Z,239.34
2023-04-09T01:12:39.267Z,239.04
2023-04-09T01:13:39.290Z,239.80
2023-04-09T01:14:39.317Z,238.72
2023-04-09T01:15:39.305Z,238.37
2023-04-09T01:16:39.366Z,237.53
2023-04-09T01:17:39.361Z,237.93
2023-04-09T01:18:39.340Z,239.55
2023-04-09T01:19:39.363Z,238.28
2023-04-09T01:20:39.407Z,240.04
2023-04-09T01:21:39.378Z,237.30
2023-04-09T01:22:39.398Z,237.37
2023-04-09T01:23:39.411Z,235.24
2023-04-09T01:24:39.421Z,239.25
2023-04-09T01:25:39.385Z,239.33
2023-04-09T01:26:39.333Z,239.54
2023-04-09T01:27:39.287Z,238.88
2023-04-09T01:28:39.248Z,239.10
2023-04-09T01:29:39.213Z,239.62
2023-04-09T01:30:39.196Z,240.64
2023-04-09T01:31:39.134Z,240.72
2023-04-09T01:32:39.095Z,240.59
2023-04-09T01:33:39.051Z,238.90
2023-04-09T01:34:39.076Z,240.74
2023-04-09T01:35:38.997Z,239.88
2023-04-09T01:36:38.927Z,240.21
2023-04-09T01:37:38.900Z,239.18
2023-04-09T01:38:38.859Z,241.11
2023-04-09T01:39:38.800Z,238.04
2023-04-09T01:40:38.768Z,240.72
2023-04-09T01:41:38.859Z,238.27
2023-04-09T01:42:38.703Z,239.69
2023-04-09T01:43:38.728Z,240.12
2023-04-09T01:44:38.730Z,239.79
2023-04-09T01:45:38.739Z,239.64
2023-04-09T01:46:38.773Z,240.50
2023-04-09T01:47:38.781Z,239.79
2023-04-09T01:48:38.789Z,240.19
2023-04-09T01:49:38.812Z,240.12
2023-04-09T01:50:38.829Z,236.68
2023-04-09T01:51:38.851Z,237.82
2023-04-09T01:52:38.872Z,238.74
2023-04-09T01:53:38.882Z,240.53
2023-04-09T01:54:38.905Z,239.36
2023-04-09T01:55:38.919Z,239.58
2023-04-09T01:56:38.931Z,239.02
2023-04-09T01:57:38.958Z,239.05
2023-04-09T01:58:38.960Z,237.00
2023-04-09T01:59:38.994Z,238.99
2023-04-09T02:00:39.032Z,240.13
2023-04-09T02:01:39.090Z,236.75
2023-04-09T02:02:39.122Z,238.63
2023-04-09T02:03:39.099Z,236.44
2023-04-09T02:04:39.071Z,237.74
2023-04-09T02:05:39.087Z,237.81
2023-04-09T02:06:39.105Z,237.07
2023-04-09T02:07:39.120Z,239.54
2023-04-09T02:08:39.127Z,238.38
2023-04-09T02:09:39.150Z,239.31
2023-04-09T02:10:39.167Z,237.46
2023-04-09T02:11:39.179Z,237.64
2023-04-09T02:12:39.202Z,238.87
2023-04-09T02:13:39.205Z,237.03
2023-04-09T02:14:39.225Z,237.45
2023-04-09T02:15:39.257Z,236.50
2023-04-09T02:16:39.247Z,236.93
2023-04-09T02:17:39.287Z,238.20
2023-04-09T02:18:39.265Z,238.53
2023-04-09T02:19:39.282Z,236.74
2023-04-09T02:20:39.306Z,236.37
2023-04-09T02:21:39.315Z,236.91
2023-04-09T02:22:39.347Z,237.25
2023-04-09T02:23:39.369Z,236.67
2023-04-09T02:24:39.358Z,238.82
2023-04-09T02:25:39.384Z,235.97
2023-04-09T02:26:39.389Z,238.42
2023-04-09T02:27:39.422Z,238.28
2023-04-09T02:28:39.432Z,238.14
2023-04-09T02:29:39.452Z,237.67
2023-04-09T02:30:39.472Z,235.98
2023-04-09T02:31:39.468Z,239.06
2023-04-09T02:32:39.511Z,239.12
2023-04-09T02:33:39.506Z,237.55
2023-04-09T02:34:39.528Z,238.63
2023-04-09T02:35:39.636Z,238.15
2023-04-09T02:36:39.540Z,236.65
2023-04-09T02:37:39.564Z,238.56
2023-04-09T02:38:39.580Z,236.82
2023-04-09T02:39:39.595Z,236.90
2023-04-09T02:40:39.620Z,237.20
2023-04-09T02:41:39.622Z,236.67
2023-04-09T02:42:39.647Z,239.18
2023-04-09T02:43:39.652Z,237.55
2023-04-09T02:44:39.671Z,237.46
2023-04-09T02:45:39.693Z,237.78
2023-04-09T02:46:39.753Z,238.59
2023-04-09T02:47:39.759Z,239.42
2023-04-09T02:48:39.765Z,236.75
2023-04-09T02:49:39.761Z,236.75
2023-04-09T02:50:39.790Z,237.74
2023-04-09T02:51:39.810Z,238.98
2023-04-09T02:52:39.804Z,237.53
2023-04-09T02:53:39.840Z,238.60
2023-04-09T02:54:39.844Z,237.35
2023-04-09T02:55:39.877Z,239.07
2023-04-09T02:56:39.887Z,237.08
2023-04-09T02:57:39.911Z,237.71
2023-04-09T02:58:39.938Z,231.42
2023-04-09T02:59:39.946Z,228.40
2023-04-09T03:00:39.994Z,228.22
2023-04-09T03:01:40.058Z,218.89
2023-04-09T03:02:40.051Z,211.03
2023-04-09T03:03:40.150Z,198.61
2023-04-09T03:04:40.046Z,185.83
2023-04-09T03:05:40.076Z,177.00
2023-04-09T03:06:40.090Z,169.02
2023-04-09T03:07:40.122Z,158.11
2023-04-09T03:08:40.142Z,146.69
2023-04-09T03:09:40.173Z,132.97
2023-04-09T03:10:40.210Z,120.17
2023-04-09T03:11:40.251Z,108.75
2023-04-09T03:12:40.283Z,97.66
2023-04-09T03:13:40.317Z,90.94
2023-04-09T03:14:40.299Z,82.95
2023-04-09T03:15:40.404Z,73.54
2023-04-09T03:16:40.291Z,61.33
2023-04-09T03:17:40.307Z,51.65
2023-04-09T03:18:40.289Z,42.70
2023-04-09T03:19:40.294Z,37.53
2023-04-09T03:20:40.276Z,30.19
2023-04-09T03:21:40.271Z,26.23
2023-04-09T03:22:40.292Z,25.00
2023-04-09T03:23:40.304Z,21.21
2023-04-09T03:24:40.328Z,28.25
2023-04-09T03:25:40.338Z,27.28
2023-04-09T03:26:40.344Z,28.07
2023-04-09T03:27:40.351Z,25.00
2023-04-09T03:28:40.338Z,25.03
2023-04-09T03:29:40.348Z,25.09
2023-04-09T03:30:40.369Z,26.80
2023-04-09T03:31:40.413Z,25.00
2023-04-09T03:32:40.362Z,25.62
2023-04-09T03:33:40.343Z,25.14
2023-04-09T03:34:40.339Z,25.21
2023-04-09T03:35:40.364Z,25.38
2023-04-09T03:36:40.315Z,26.27
2023-04-09T03:37:40.294Z,25.00
2023-04-09T03:38:40.262Z,25.51
2023-04-09T03:39:40.236Z,25.00
2023-04-09T03:40:40.227Z,25.00
2023-04-09T03:41:40.191Z,25.05
2023-04-09T03:42:40.160Z,25.00
2023-04-09T03:43:40.125Z,25.59
2023-04-09T03:44:40.115Z,28.18
2023-04-09T03:45:40.089Z,28.24
2023-04-09T03:46:40.135Z,24.53
2023-04-09T03:47:40.044Z,26.16
2023-04-09T03:48:39.993Z,23.65
2023-04-09T03:49:39.967Z,23.72
2023-04-09T03:50:39.946Z,25.00
2023-04-09T03:51:39.901Z,25.40
2023-04-09T03:52:39.847Z,26.01
2023-04-09T03:53:39.815Z,25.36
2023-04-09T03:54:39.784Z,25.00
2023-04-09T03:55:39.767Z,25.59
2023-04-09T03:56:39.733Z,25.35
2023-04-09T03:57:39.677Z,25.32
2023-04-09T03:58:39.640Z,26.82
2023-04-09T03:59:39.615Z,25.63
2023-04-09T04:00:39.592Z,28.25
2023-04-09T04:01:39.634Z,29.03
2023-04-09T04:02:39.747Z,25.34
2023-04-09T04:03:39.757Z,26.59
2023-04-09T04:04:39.460Z,27.48
2023-04-09T04:05:39.422Z,25.00
2023-04-09T04:06:39.384Z,27.90
2023-04-09T04:07:39.369Z,26.63
2023-04-09T04:08:39.332Z,30.22
2023-04-09T04:09:39.303Z,37.21
2023-04-09T04:10:39.274Z,33.99
2023-04-09T04:11:39.242Z,36.18
2023-04-09T04:12:39.222Z,31.98
2023-04-09T04:13:39.176Z,28.75
2023-04-09T04:14:39.143Z,29.03
2023-04-09T04:15:39.122Z,29.61
2023-04-09T04:16:39.153Z,25.00
2023-04-09T04:17:39.058Z,25.65
2023-04-09T04:18:39.020Z,26.01
2023-04-09T04:19:39.009Z,24.74
2023-04-09T04:20:38.979Z,26.92
2023-04-09T04:21:38.972Z,29.96
2023-04-09T04:22:38.957Z,31.99
2023-04-09T04:23:38.959Z,34.42
2023-04-09T04:24:38.954Z,33.16
2023-04-09T04:25:38.963Z,32.07
2023-04-09T04:26:38.961Z,31.07
2023-04-09T04:27:38.962Z,30.99
2023-04-09T04:28:38.962Z,28.75
2023-04-09T04:29:38.963Z,30.80
2023-04-09T04:30:38.959Z,29.95
2023-04-09T04:31:38.983Z,27.75
2023-04-09T04:32:39.009Z,26.98
2023-04-09T04:33:38.943Z,26.28
2023-04-09T04:34:38.940Z,24.76
2023-04-09T04:35:38.981Z,30.30
2023-04-09T04:36:38.940Z,28.48
2023-04-09T04:37:38.944Z,25.78
2023-04-09T04:38:38.961Z,28.36
2023-04-09T04:39:38.946Z,28.61
2023-04-09T04:40:38.944Z,26.86
2023-04-09T04:41:38.958Z,30.29
2023-04-09T04:42:38.960Z,30.32
2023-04-09T04:43:38.994Z,30.20
2023-04-09T04:44:38.974Z,33.28
2023-04-09T04:45:39.034Z,34.28
2023-04-09T04:46:38.997Z,31.28
2023-04-09T04:47:39.024Z,29.67
2023-04-09T04:48:39.012Z,36.50
2023-04-09T04:49:39.031Z,40.79
2023-04-09T04:50:39.021Z,38.83
2023-04-09T04:51:39.087Z,36.99
2023-04-09T04:52:39.048Z,37.00
2023-04-09T04:53:39.068Z,35.09
2023-04-09T04:54:39.076Z,35.16
2023-04-09T04:55:39.082Z,36.06
2023-04-09T04:56:39.118Z,36.86
2023-04-09T04:57:39.114Z,40.48
2023-04-09T04:58:39.120Z,41.98
2023-04-09T04:59:39.134Z,40.11
2023-04-09T05:00:39.150Z,40.14
2023-04-09T05:01:39.238Z,40.02
2023-04-09T05:02:39.404Z,43.15
2023-04-09T05:03:39.262Z,46.66
2023-04-09T05:04:39.225Z,44.14
2023-04-09T05:05:39.243Z,44.03
2023-04-09T05:06:39.263Z,43.24
2023-04-09T05:07:39.300Z,46.23
2023-04-09T05:08:39.304Z,42.09
2023-04-09T05:09:39.322Z,44.30
2023-04-09T05:10:39.347Z,43.04
2023-04-09T05:11:39.365Z,43.23
2023-04-09T05:12:39.398Z,44.31
2023-04-09T05:13:39.413Z,47.13
2023-04-09T05:14:39.429Z,45.13
2023-04-09T05:15:39.455Z,46.80
2023-04-09T05:16:39.540Z,43.75
2023-04-09T05:17:39.560Z,46.48
2023-04-09T05:18:39.518Z,45.67
2023-04-09T05:19:39.536Z,47.02
2023-04-09T05:20:39.562Z,48.72
2023-04-09T05:21:39.596Z,51.11
2023-04-09T05:22:39.596Z,50.32
2023-04-09T05:23:39.637Z,45.84
2023-04-09T05:24:39.641Z,45.57
2023-04-09T05:25:39.676Z,50.91
2023-04-09T05:26:39.692Z,50.66
2023-04-09T05:27:39.720Z,50.18
2023-04-09T05:28:39.749Z,48.84
2023-04-09T05:29:39.776Z,51.22
2023-04-09T05:30:39.831Z,48.92
2023-04-09T05:31:39.814Z,48.75
2023-04-09T05:32:39.867Z,51.10
2023-04-09T05:33:39.867Z,45.58
2023-04-09T05:34:39.895Z,45.71
2023-04-09T05:35:39.979Z,48.21
2023-04-09T05:36:39.932Z,50.98
2023-04-09T05:37:39.972Z,49.34
2023-04-09T05:38:39.995Z,50.13
2023-04-09T05:39:40.007Z,50.35
2023-04-09T05:40:40.045Z,53.69
2023-04-09T05:41:40.066Z,56.23
2023-04-09T05:42:40.073Z,58.03
2023-04-09T05:43:40.112Z,57.48
2023-04-09T05:44:40.113Z,57.68
2023-04-09T05:45:40.209Z,55.89
2023-04-09T05:46:40.165Z,58.03
2023-04-09T05:47:40.213Z,56.85
2023-04-09T05:48:40.222Z,56.02
2023-04-09T05:49:40.253Z,56.92
2023-04-09T05:50:53.350Z,57.01
2023-04-09T05:51:41.269Z,55.47
2023-04-09T05:52:40.225Z,55.95
2023-04-09T05:53:40.195Z,56.89
2023-04-09T05:54:40.169Z,57.19
2023-04-09T05:55:40.133Z,61.31
2023-04-09T05:56:40.103Z,61.77
2023-04-09T05:57:40.083Z,64.71
2023-04-09T05:58:40.058Z,67.35
2023-04-09T05:59:40.033Z,67.32
2023-04-09T06:00:40.002Z,64.79
2023-04-09T06:01:40.058Z,67.20
2023-04-09T06:02:40.222Z,64.33
2023-04-09T06:03:40.231Z,62.95
2023-04-09T06:04:40.141Z,61.15
2023-04-09T06:05:40.165Z,59.07
2023-04-09T06:06:40.193Z,57.94
2023-04-09T06:07:40.251Z,57.70
2023-04-09T06:08:40.262Z,56.96
2023-04-09T06:09:40.315Z,52.70
2023-04-09T06:10:41.433Z,56.36
2023-04-09T06:11:40.385Z,53.02
2023-04-09T06:12:40.433Z,52.78
2023-04-09T06:13:40.463Z,51.00
2023-04-09T06:14:40.510Z,55.64
2023-04-09T06:15:40.575Z,53.90
2023-04-09T06:16:40.586Z,53.33
2023-04-09T06:17:40.705Z,50.36
2023-04-09T06:18:40.650Z,52.18
2023-04-09T06:19:40.684Z,52.90
2023-04-09T06:20:40.721Z,48.98
2023-04-09T06:21:40.756Z,49.24
2023-04-09T06:22:40.798Z,57.20
2023-04-09T06:23:40.819Z,57.03
2023-04-09T06:24:40.863Z,57.65
2023-04-09T06:25:40.898Z,60.95
2023-04-09T06:26:40.913Z,60.35
2023-04-09T06:27:40.959Z,61.10
2023-04-09T06:28:40.982Z,62.67
2023-04-09T06:29:41.009Z,62.16
2023-04-09T06:30:41.044Z,62.27
2023-04-09T06:31:41.157Z,64.26
2023-04-09T06:32:53.204Z,62.96
2023-04-09T06:33:42.124Z,62.96
2023-04-09T06:34:41.057Z,63.02
2023-04-09T06:35:41.046Z,62.02
2023-04-09T06:36:40.988Z,64.66
2023-04-09T06:37:40.977Z,64.97
2023-04-09T06:38:40.943Z,65.41
2023-04-09T06:39:44.799Z,66.20
2023-04-09T06:40:41.905Z,63.86
2023-04-09T06:41:40.864Z,64.83
2023-04-09T06:42:40.836Z,65.98
2023-04-09T06:43:40.826Z,66.50
2023-04-09T06:44:40.791Z,68.14
2023-04-09T06:45:41.259Z,71.07
2023-04-09T06:46:40.732Z,71.46
2023-04-09T06:47:40.733Z,69.54
2023-04-09T06:48:40.664Z,66.42
2023-04-09T06:49:40.687Z,71.84
2023-04-09T06:50:40.710Z,68.97
2023-04-09T06:51:40.743Z,69.78
2023-04-09T06:52:40.768Z,71.71
2023-04-09T06:53:40.827Z,72.95
2023-04-09T06:54:40.829Z,78.47
2023-04-09T06:55:40.872Z,75.10
2023-04-09T06:56:40.893Z,71.66
2023-04-09T06:57:40.863Z,71.73
2023-04-09T06:58:40.855Z,72.11
2023-04-09T06:59:40.899Z,72.13
2023-04-09T07:00:40.783Z,75.78
2023-04-09T07:01:40.886Z,76.21
2023-04-09T07:02:41.099Z,76.29
2023-04-09T07:03:40.795Z,77.82
2023-04-09T07:04:40.682Z,78.16
2023-04-09T07:05:40.654Z,78.34
2023-04-09T07:06:40.686Z,78.01
2023-04-09T07:07:40.697Z,80.11
2023-04-09T07:08:40.727Z,78.60
2023-04-09T07:09:40.766Z,79.80
2023-04-09T07:10:40.800Z,77.29
2023-04-09T07:11:40.838Z,77.62
2023-04-09T07:12:40.881Z,75.49
2023-04-09T07:13:40.910Z,76.02
2023-04-09T07:14:40.918Z,76.92
2023-04-09T07:15:42.486Z,75.93
2023-04-09T07:16:41.030Z,75.27
2023-04-09T07:17:41.029Z,77.40
2023-04-09T07:18:41.049Z,76.53
2023-04-09T07:19:41.061Z,79.42
2023-04-09T07:20:41.097Z,78.87
2023-04-09T07:21:41.124Z,75.56
2023-04-09T07:22:41.169Z,78.03
2023-04-09T07:23:41.201Z,79.64
2023-04-09T07:24:41.234Z,81.12
2023-04-09T07:25:41.260Z,79.71
2023-04-09T07:26:41.286Z,82.85
2023-04-09T07:27:41.321Z,80.12
2023-04-09T07:28:41.361Z,80.69
2023-04-09T07:29:41.397Z,77.17
2023-04-09T07:30:41.429Z,81.88
2023-04-09T07:31:41.478Z,77.76
2023-04-09T07:32:41.534Z,79.81
2023-04-09T07:33:41.526Z,80.56
2023-04-09T07:34:41.553Z,82.05
2023-04-09T07:35:41.606Z,83.06
2023-04-09T07:36:41.621Z,79.86
2023-04-09T07:37:41.641Z,80.62
2023-04-09T07:38:41.671Z,77.70
2023-04-09T07:39:41.706Z,77.29
2023-04-09T07:40:41.734Z,79.97
2023-04-09T07:41:41.767Z,80.47
2023-04-09T07:42:41.804Z,82.51
2023-04-09T07:43:41.846Z,82.75
2023-04-09T07:44:41.873Z,82.64
2023-04-09T07:45:41.897Z,86.69
2023-04-09T07:46:41.954Z,85.92
2023-04-09T07:47:41.988Z,84.63
2023-04-09T07:48:41.992Z,89.83
2023-04-09T07:49:42.103Z,88.96
2023-04-09T07:50:42.065Z,87.97
2023-04-09T07:51:42.097Z,90.11
2023-04-09T07:52:42.122Z,89.96
2023-04-09T07:53:42.174Z,92.84
2023-04-09T07:54:42.206Z,91.62
2023-04-09T07:55:42.211Z,94.08
2023-04-09T07:56:42.257Z,92.69
2023-04-09T07:57:42.285Z,89.69
2023-04-09T07:58:42.342Z,91.60
2023-04-09T07:59:42.361Z,94.18
2023-04-09T08:00:42.390Z,93.49
2023-04-09T08:01:42.523Z,94.58
2023-04-09T08:02:42.590Z,92.94
2023-04-09T08:03:42.602Z,91.48
2023-04-09T08:04:42.731Z,89.66
2023-04-09T08:05:42.543Z,93.41
2023-04-09T08:06:42.582Z,94.30
2023-04-09T08:07:42.617Z,95.93
2023-04-09T08:08:42.666Z,94.80
2023-04-09T08:09:42.680Z,92.32
2023-04-09T08:10:42.709Z,90.80
2023-04-09T08:11:42.744Z,89.07
2023-04-09T08:12:42.794Z,93.75
2023-04-09T08:13:42.820Z,90.86
2023-04-09T08:14:42.786Z,90.88
2023-04-09T08:15:42.732Z,90.97
2023-04-09T08:16:42.776Z,92.86
2023-04-09T08:17:42.733Z,96.56
2023-04-09T08:18:42.665Z,95.44
2023-04-09T08:19:42.625Z,100.88
2023-04-09T08:20:42.589Z,103.26
2023-04-09T08:21:42.557Z,102.28
2023-04-09T08:22:42.586Z,101.97
2023-04-09T08:23:42.621Z,98.26
2023-04-09T08:24:42.594Z,98.34
2023-04-09T08:25:42.549Z,98.67
2023-04-09T08:26:42.525Z,100.19
2023-04-09T08:27:42.497Z,99.90
2023-04-09T08:28:42.446Z,100.50
2023-04-09T08:29:42.432Z,100.15
2023-04-09T08:30:42.381Z,98.68
2023-04-09T08:31:42.478Z,97.81
2023-04-09T08:32:42.390Z,99.48
2023-04-09T08:33:42.381Z,101.50
2023-04-09T08:34:42.419Z,102.37
2023-04-09T08:35:42.454Z,106.21
2023-04-09T08:36:42.534Z,105.13
2023-04-09T08:37:42.498Z,108.32
2023-04-09T08:38:42.530Z,107.30
2023-04-09T08:39:42.568Z,109.67
2023-04-09T08:40:42.591Z,110.78
2023-04-09T08:41:42.620Z,108.49
2023-04-09T08:42:42.642Z,105.43
2023-04-09T08:43:57.176Z,104.96
2023-04-09T08:44:43.651Z,104.98
2023-04-09T08:45:42.680Z,104.22
2023-04-09T08:46:42.567Z,104.88
2023-04-09T08:47:42.620Z,105.64
2023-04-09T08:48:42.562Z,99.82
2023-04-09T08:49:42.467Z,96.48
2023-04-09T08:50:42.415Z,94.95
2023-04-09T08:51:42.386Z,95.02
2023-04-09T08:52:42.343Z,91.34
2023-04-09T08:53:42.312Z,92.88
2023-04-09T08:54:42.328Z,89.02
2023-04-09T08:55:42.326Z,88.61
2023-04-09T08:56:42.342Z,87.47
2023-04-09T08:57:42.391Z,82.95
2023-04-09T08:58:42.349Z,82.46
2023-04-09T08:59:42.352Z,76.65
2023-04-09T09:00:42.354Z,75.29
2023-04-09T09:01:42.424Z,82.31
2023-04-09T09:02:42.463Z,90.56
2023-04-09T09:03:42.437Z,93.21
2023-04-09T09:04:42.365Z,96.88
2023-04-09T09:05:42.387Z,98.49
2023-04-09T09:06:42.370Z,103.97
2023-04-09T09:07:42.366Z,107.96
2023-04-09T09:08:42.390Z,112.62
2023-04-09T09:09:42.377Z,116.06
2023-04-09T09:10:42.377Z,120.72
2023-04-09T09:11:42.394Z,123.79
2023-04-09T09:12:42.366Z,129.31
2023-04-09T09:13:42.362Z,134.04
2023-04-09T09:14:42.344Z,136.89
2023-04-09T09:15:42.337Z,139.75
2023-04-09T09:16:42.367Z,144.30
2023-04-09T09:17:42.332Z,149.60
2023-04-09T09:18:42.293Z,153.52
2023-04-09T09:19:42.273Z,155.76
2023-04-09T09:20:42.278Z,159.12
2023-04-09T09:21:42.224Z,161.51
2023-04-09T09:22:42.212Z,164.32
2023-04-09T09:23:42.184Z,168.75
2023-04-09T09:24:42.166Z,170.86
2023-04-09T09:25:42.142Z,175.95
2023-04-09T09:26:42.114Z,178.30
2023-04-09T09:27:42.075Z,180.96
2023-04-09T09:28:42.036Z,184.12
2023-04-09T09:29:42.008Z,185.99
2023-04-09T09:30:42.069Z,189.61
2023-04-09T09:31:41.955Z,189.42
2023-04-09T09:32:41.941Z,193.13
2023-04-09T09:33:41.868Z,195.86
2023-04-09T09:34:41.834Z,197.58
2023-04-09T09:35:41.832Z,200.25
2023-04-09T09:36:41.787Z,203.19
2023-04-09T09:37:41.760Z,206.29
2023-04-09T09:38:41.770Z,208.29
2023-04-09T09:39:41.754Z,210.01
2023-04-09T09:40:41.741Z,212.60
2023-04-09T09:41:41.751Z,214.25
2023-04-09T09:42:41.727Z,214.74
2023-04-09T09:43:41.737Z,216.47
2023-04-09T09:44:41.741Z,218.92
2023-04-09T09:45:41.816Z,220.14
2023-04-09T09:46:41.784Z,223.05
2023-04-09T09:47:41.781Z,224.22
2023-04-09T09:48:41.738Z,226.84
2023-04-09T09:49:41.746Z,226.41
2023-04-09T09:50:41.771Z,228.09
2023-04-09T09:51:41.757Z,229.91
2023-04-09T09:52:41.747Z,232.20
2023-04-09T09:53:41.758Z,232.48
2023-04-09T09:54:41.782Z,234.35
2023-04-09T09:55:41.784Z,234.98
2023-04-09T09:56:41.774Z,235.94
2023-04-09T09:57:41.757Z,237.72
2023-04-09T09:58:41.751Z,238.47
2023-04-09T09:59:41.786Z,239.88
2023-04-09T10:00:41.744Z,240.83
2023-04-09T10:01:41.857Z,242.22
2023-04-09T10:02:41.813Z,243.30
2023-04-09T10:03:41.735Z,243.92
2023-04-09T10:04:41.862Z,244.92
2023-04-09T10:05:41.767Z,245.90
2023-04-09T10:06:41.804Z,245.73
2023-04-09T10:07:41.823Z,247.56
2023-04-09T10:08:41.866Z,248.66
2023-04-09T10:09:41.876Z,247.74
2023-04-09T10:10:41.929Z,249.36
2023-04-09T10:11:41.943Z,249.82
2023-04-09T10:12:41.943Z,249.63
2023-04-09T10:13:41.964Z,249.33
2023-04-09T10:14:41.988Z,249.76
2023-04-09T10:15:42.065Z,250.00
2023-04-09T10:16:42.027Z,249.65
2023-04-09T10:17:42.063Z,248.88
2023-04-09T10:18:42.068Z,249.54
2023-04-09T10:19:42.050Z,249.38
2023-04-09T10:20:42.061Z,249.86
2023-04-09T10:21:42.793Z,249.29
2023-04-09T10:22:42.103Z,248.97
2023-04-09T10:23:42.143Z,250.00
2023-04-09T10:24:42.143Z,249.81
2023-04-09T10:25:42.146Z,250.00
2023-04-09T10:26:42.160Z,248.68
2023-04-09T10:27:42.177Z,250.00
2023-04-09T10:28:42.202Z,249.98
2023-04-09T10:29:42.214Z,248.85
2023-04-09T10:30:42.245Z,249.93
2023-04-09T10:31:42.306Z,249.43
2023-04-09T10:32:42.323Z,249.36
2023-04-09T10:33:42.305Z,249.19
2023-04-09T10:34:42.350Z,250.00
2023-04-09T10:35:42.460Z,248.91
2023-04-09T10:36:42.379Z,248.89
2023-04-09T10:37:42.392Z,249.06
2023-04-09T10:38:42.419Z,248.36
2023-04-09T10:39:42.435Z,248.69
2023-04-09T10:40:42.462Z,250.00
2023-04-09T10:41:42.481Z,248.00
2023-04-09T10:42:42.492Z,247.91
2023-04-09T10:43:42.499Z,249.18
2023-04-09T10:44:42.517Z,249.81
2023-04-09T10:45:42.587Z,248.97
2023-04-09T10:46:42.607Z,247.33
2023-04-09T10:47:42.595Z,247.73
2023-04-09T10:48:42.561Z,248.50
2023-04-09T10:49:42.580Z,248.28
2023-04-09T10:50:42.580Z,248.73
2023-04-09T10:51:42.563Z,247.73
2023-04-09T10:52:42.567Z,247.98
2023-04-09T10:53:42.578Z,250.00
2023-04-09T10:54:42.586Z,249.07
2023-04-09T10:55:42.648Z,249.53
2023-04-09T10:56:42.595Z,247.31
2023-04-09T10:57:42.586Z,247.94
2023-04-09T10:58:42.593Z,248.64
2023-04-09T10:59:42.592Z,248.67
2023-04-09T11:00:42.657Z,249.94
2023-04-09T11:01:42.700Z,247.77
2023-04-09T11:02:42.771Z,248.15
2023-04-09T11:03:42.633Z,250.00
2023-04-09T11:04:42.618Z,248.22
2023-04-09T11:05:42.604Z,246.01
2023-04-09T11:06:42.614Z,246.95
2023-04-09T11:07:42.591Z,247.99
2023-04-09T11:08:42.597Z,247.43
2023-04-09T11:09:42.596Z,246.84
2023-04-09T11:10:42.593Z,247.20
2023-04-09T11:11:42.593Z,248.62
2023-04-09T11:12:42.583Z,247.47
2023-04-09T11:13:42.578Z,248.75
2023-04-09T11:14:42.585Z,248.11
2023-04-09T11:15:42.648Z,248.97
2023-04-09T11:16:42.638Z,247.67
2023-04-09T11:17:42.592Z,248.87
2023-04-09T11:18:42.578Z,248.86
2023-04-09T11:19:42.554Z,247.76
2023-04-09T11:20:42.572Z,250.00
2023-04-09T11:21:43.499Z,248.44
2023-04-09T11:22:42.560Z,247.85
2023-04-09T11:23:42.547Z,249.39
2023-04-09T11:24:42.574Z,248.96
2023-04-09T11:25:42.615Z,247.92
2023-04-09T11:26:42.546Z,248.27
2023-04-09T11:27:42.531Z,248.53
2023-04-09T11:28:42.533Z,247.21
2023-04-09T11:29:42.520Z,248.99
2023-04-09T11:30:42.505Z,248.85
2023-04-09T11:31:42.573Z,247.05
2023-04-09T11:32:42.527Z,248.17
2023-04-09T11:33:42.483Z,247.57
2023-04-09T11:34:42.468Z,247.99
2023-04-09T11:35:42.495Z,247.35
2023-04-09T11:36:42.460Z,246.58
2023-04-09T11:37:42.441Z,248.79
2023-04-09T11:38:42.431Z,248.33
2023-04-09T11:39:42.416Z,249.21
2023-04-09T11:40:42.393Z,248.41
2023-04-09T11:41:42.398Z,247.09
2023-04-09T11:42:42.386Z,249.15
2023-04-09T11:43:42.370Z,250.00
2023-04-09T11:44:42.357Z,248.83
2023-04-09T11:45:42.326Z,248.22
2023-04-09T11:46:42.348Z,246.91
2023-04-09T11:47:42.294Z,247.89
2023-04-09T11:48:42.269Z,247.61
2023-04-09T11:49:42.241Z,249.25
2023-04-09T11:50:42.212Z,248.19
2023-04-09T11:51:42.205Z,247.29
2023-04-09T11:52:42.166Z,248.42
2023-04-09T11:53:42.152Z,249.23
2023-04-09T11:54:42.109Z,248.47
2023-04-09T11:55:42.095Z,247.15
2023-04-09T11:56:42.058Z,249.38
2023-04-09T11:57:42.035Z,248.15
2023-04-09T11:58:42.014Z,246.68
2023-04-09T11:59:41.979Z,247.86
2023-04-09T12:00:41.940Z,247.64
2023-04-09T12:01:41.958Z,250.00
2023-04-09T12:02:41.916Z,246.01
2023-04-09T12:03:41.931Z,246.88
2023-04-09T12:04:42.010Z,248.12
2023-04-09T12:05:44.047Z,249.24
2023-04-09T12:06:41.740Z,249.24
2023-04-09T12:07:46.219Z,249.26
2023-04-09T12:08:42.646Z,249.31
2023-04-09T12:09:41.579Z,249.33
2023-04-09T12:10:41.525Z,249.25
2023-04-09T12:11:41.497Z,249.67
2023-04-09T12:12:41.455Z,249.31
2023-04-09T12:13:41.402Z,249.85
2023-04-09T12:14:41.373Z,247.05
2023-04-09T12:15:41.332Z,247.08
2023-04-09T12:16:41.321Z,246.71
2023-04-09T12:17:41.249Z,247.60
2023-04-09T12:18:41.205Z,248.63
2023-04-09T12:19:41.151Z,248.14
2023-04-09T12:20:41.110Z,248.35
2023-04-09T12:21:41.090Z,246.00
2023-04-09T12:22:41.030Z,247.22
2023-04-09T12:23:40.973Z,247.99
2023-04-09T12:24:40.936Z,247.99
2023-04-09T12:25:40.907Z,248.57
2023-04-09T12:26:40.851Z,247.63
2023-04-09T12:27:40.803Z,248.51
2023-04-09T12:28:40.747Z,247.09
2023-04-09T12:29:40.698Z,249.02
2023-04-09T12:30:40.661Z,248.76
2023-04-09T12:31:40.651Z,247.34
2023-04-09T12:32:40.579Z,249.00
2023-04-09T12:33:40.599Z,247.32
2023-04-09T12:34:40.464Z,248.31
2023-04-09T12:35:40.457Z,247.34
2023-04-09T12:36:40.371Z,248.62
2023-04-09T12:37:40.306Z,249.69
2023-04-09T12:38:40.252Z,246.73